createdAt,value
2023-06-21T00:02:26.169Z,21.55
2023-06-21T00:04:56.867Z,20.10
2023-06-21T00:07:25.188Z,24.52
2023-06-21T00:09:53.073Z,28.50
2023-06-21T00:12:21.688Z,36.60
2023-06-21T00:14:48.428Z,22.77
2023-06-21T00:17:15.027Z,20.00
2023-06-21T00:19:41.595Z,18.00
2023-06-21T00:22:08.576Z,18.85
2023-06-21T00:24:35.272Z,26.67
2023-06-21T00:27:02.014Z,19.38
2023-06-21T00:29:28.834Z,21.10
2023-06-21T00:31:55.461Z,17.92
2023-06-21T00:34:22.112Z,20.92
2023-06-21T00:36:48.653Z,19.13
2023-06-21T00:39:15.924Z,17.25
2023-06-21T00:41:42.845Z,14.87
2023-06-21T00:44:09.566Z,16.42
2023-06-21T00:46:36.229Z,16.60
2023-06-21T00:49:05.269Z,14.40
2023-06-21T00:51:34.074Z,15.68
2023-06-21T00:54:01.154Z,15.23
2023-06-21T00:56:27.798Z,16.02
2023-06-21T00:58:54.310Z,15.55
2023-06-21T01:01:21.509Z,15.23
2023-06-21T01:03:48.247Z,14.10
2023-06-21T01:06:36.191Z,15.33
2023-06-21T01:09:06.097Z,16.05
2023-06-21T01:11:45.308Z,14.27
2023-06-21T01:14:36.938Z,15.60
2023-06-21T01:17:06.769Z,19.35
2023-06-21T01:19:52.118Z,12.90
2023-06-21T01:22:21.629Z,24.52
2023-06-21T01:25:08.074Z,16.60
2023-06-21T01:28:16.839Z,16.95
2023-06-21T01:30:46.715Z,16.67
2023-06-21T01:33:14.156Z,26.77
2023-06-21T01:35:42.346Z,17.60
2023-06-21T01:38:08.922Z,26.98
2023-06-21T01:40:38.588Z,30.65
2023-06-21T01:43:06.948Z,35.58
2023-06-21T01:45:33.946Z,30.33
2023-06-21T01:48:03.704Z,29.48
2023-06-21T01:50:32.438Z,23.83
2023-06-21T01:53:02.492Z,35.25
2023-06-21T01:55:31.374Z,47.55
2023-06-21T01:57:58.312Z,35.53
2023-06-21T02:00:28.437Z,27.15
2023-06-21T02:03:05.971Z,32.28
2023-06-21T02:05:35.082Z,28.00
2023-06-21T02:08:06.014Z,25.63
2023-06-21T02:10:32.955Z,24.17
2023-06-21T02:12:59.899Z,21.20
2023-06-21T02:15:26.492Z,25.77
2023-06-21T02:17:54.771Z,25.20
2023-06-21T02:20:23.690Z,23.30
2023-06-21T02:22:50.828Z,26.17
2023-06-21T02:25:18.386Z,21.58
2023-06-21T02:27:45.258Z,36.92
2023-06-21T02:30:12.186Z,30.40
2023-06-21T02:32:38.767Z,27.92
2023-06-21T02:35:06.539Z,20.73
2023-06-21T02:37:33.641Z,31.95
2023-06-21T02:40:00.375Z,27.00
2023-06-21T02:42:31.052Z,30.35
2023-06-21T02:44:57.660Z,25.85
2023-06-21T02:47:24.403Z,32.03
2023-06-21T02:49:50.948Z,27.30
2023-06-21T02:52:18.893Z,33.05
2023-06-21T02:54:45.538Z,32.33
2023-06-21T02:57:12.111Z,30.52
2023-06-21T02:59:38.984Z,29.93
2023-06-21T03:02:06.396Z,29.23
2023-06-21T03:04:33.054Z,30.67
2023-06-21T03:07:02.497Z,32.58
2023-06-21T03:09:29.994Z,35.45
2023-06-21T03:11:56.794Z,37.97
2023-06-21T03:14:23.573Z,29.00
2023-06-21T03:16:50.862Z,37.65
2023-06-21T03:19:19.010Z,41.13
2023-06-21T03:21:46.895Z,32.85
2023-06-21T03:24:13.645Z,38.43
2023-06-21T03:26:40.327Z,32.50
2023-06-21T03:29:08.100Z,33.50
2023-06-21T03:31:35.779Z,32.38
2023-06-21T03:34:02.571Z,31.90
2023-06-21T03:36:29.923Z,35.70
2023-06-21T03:38:56.604Z,37.60
2023-06-21T03:41:23.272Z,32.58
2023-06-21T03:43:50.107Z,30.55
2023-06-21T03:46:16.944Z,26.52
2023-06-21T03:48:44.146Z,32.50
2023-06-21T03:51:10.723Z,33.05
2023-06-21T03:53:37.547Z,31.02
2023-06-21T03:56:05.515Z,34.45
2023-06-21T03:58:32.189Z,32.45
2023-06-21T04:00:58.983Z,30.73
2023-06-21T04:03:25.732Z,28.92
2023-06-21T04:05:52.506Z,34.47
2023-06-21T04:08:19.101Z,29.63
2023-06-21T04:10:45.660Z,36.30
2023-06-21T04:13:12.454Z,32.40
2023-06-21T04:15:39.096Z,33.13
2023-06-21T04:18:05.855Z,27.35
2023-06-21T04:20:32.753Z,33.35
2023-06-21T04:22:59.725Z,33.83
2023-06-21T04:25:26.329Z,36.63
2023-06-21T04:27:55.479Z,24.60
2023-06-21T04:30:22.709Z,31.60
2023-06-21T04:32:49.485Z,34.63
2023-06-21T04:35:17.717Z,35.65
2023-06-21T04:37:49.080Z,34.00
2023-06-21T04:40:18.685Z,31.33
2023-06-21T04:42:47.337Z,35.20
2023-06-21T04:45:18.037Z,29.80
2023-06-21T04:47:48.003Z,26.65
2023-06-21T04:50:21.948Z,28.40
2023-06-21T04:52:50.602Z,26.90
2023-06-21T04:55:19.388Z,33.30
2023-06-21T04:57:47.974Z,28.95
2023-06-21T05:00:15.568Z,29.77
2023-06-21T05:02:42.361Z,26.77
2023-06-21T05:05:09.375Z,31.42
2023-06-21T05:07:38.674Z,28.58
2023-06-21T05:10:08.714Z,26.10
2023-06-21T05:12:37.486Z,25.58
2023-06-21T05:15:06.465Z,26.60
2023-06-21T05:17:33.684Z,24.67
2023-06-21T05:20:00.674Z,29.10
2023-06-21T05:22:27.292Z,24.70
2023-06-21T05:24:53.961Z,22.23
2023-06-21T05:27:21.054Z,24.37
2023-06-21T05:29:47.693Z,26.63
2023-06-21T05:32:14.598Z,21.63
2023-06-21T05:34:41.162Z,22.55
2023-06-21T05:37:07.673Z,25.40
2023-06-21T05:39:34.215Z,25.33
2023-06-21T05:42:00.966Z,24.40
2023-06-21T05:44:27.773Z,21.33
2023-06-21T05:46:54.527Z,20.42
2023-06-21T05:49:21.177Z,26.88
2023-06-21T05:51:47.873Z,25.63
2023-06-21T05:54:15.886Z,19.35
2023-06-21T05:56:42.658Z,23.08
2023-06-21T05:59:09.577Z,22.05
2023-06-21T06:01:36.749Z,22.40
2023-06-21T06:04:03.779Z,22.50
2023-06-21T06:06:39.923Z,25.55
2023-06-21T06:09:10.968Z,21.00
2023-06-21T06:11:37.692Z,21.23
2023-06-21T06:14:04.327Z,19.00
2023-06-21T06:16:31.115Z,24.80
2023-06-21T06:18:59.046Z,19.38
2023-06-21T06:21:25.797Z,16.15
2023-06-21T06:23:54.024Z,19.35
2023-06-21T06:26:26.325Z,19.52
2023-06-21T06:28:56.542Z,19.80
2023-06-21T06:31:25.240Z,18.30
2023-06-21T06:33:52.286Z,15.40
2023-06-21T06:36:19.762Z,18.38
2023-06-21T06:38:47.956Z,13.40
2023-06-21T06:41:14.715Z,14.23
2023-06-21T06:43:41.482Z,15.57
2023-06-21T06:46:08.152Z,14.43
2023-06-21T06:48:34.992Z,15.57
2023-06-21T06:51:01.679Z,13.38
2023-06-21T06:53:28.351Z,16.20
2023-06-21T06:55:56.289Z,15.95
2023-06-21T06:58:22.930Z,14.95
2023-06-21T07:00:49.753Z,12.50
2023-06-21T07:03:16.990Z,16.48
2023-06-21T07:05:45.792Z,12.27
2023-06-21T07:08:15.026Z,17.70
2023-06-21T07:10:42.262Z,12.57
2023-06-21T07:13:09.139Z,13.60
2023-06-21T07:15:36.978Z,12.85
2023-06-21T07:18:04.116Z,12.87
2023-06-21T07:20:32.552Z,13.05
2023-06-21T07:22:59.808Z,13.07
2023-06-21T07:25:26.713Z,16.52
2023-06-21T07:27:53.560Z,13.68
2023-06-21T07:30:21.513Z,15.30
2023-06-21T07:32:49.308Z,13.32
2023-06-21T07:35:17.684Z,12.32
2023-06-21T07:37:45.510Z,8.60
2023-06-21T07:40:12.870Z,12.68
2023-06-21T07:42:40.922Z,12.57
2023-06-21T07:45:08.793Z,13.25
2023-06-21T07:47:36.274Z,12.20
2023-06-21T07:50:20.302Z,10.32
2023-06-21T07:52:49.167Z,10.02
2023-06-21T07:55:16.136Z,8.83
2023-06-21T07:57:43.296Z,8.93
2023-06-21T08:00:13.206Z,7.63
2023-06-21T08:02:45.775Z,6.13
2023-06-21T08:05:16.052Z,8.25
2023-06-21T08:07:43.704Z,8.43
2023-06-21T08:10:12.824Z,5.43
2023-06-21T08:12:39.580Z,8.18
2023-06-21T08:15:07.365Z,6.40
2023-06-21T08:17:34.298Z,6.43
2023-06-21T08:20:02.895Z,5.73
2023-06-21T08:22:29.764Z,5.32
2023-06-21T08:24:59.432Z,6.03
2023-06-21T08:27:26.323Z,5.45
2023-06-21T08:29:53.874Z,5.07
2023-06-21T08:32:21.559Z,4.97
2023-06-21T08:34:48.480Z,4.40
2023-06-21T08:37:15.446Z,3.90
2023-06-21T08:39:42.168Z,3.28
2023-06-21T08:42:09.568Z,4.05
2023-06-21T08:44:36.494Z,3.00
2023-06-21T08:47:07.805Z,4.32
2023-06-21T08:49:41.974Z,2.70
2023-06-21T08:52:12.719Z,6.70
2023-06-21T08:54:41.676Z,7.05
2023-06-21T08:57:15.437Z,8.23
2023-06-21T08:59:46.737Z,7.90
2023-06-21T09:02:36.342Z,4.88
2023-06-21T09:05:13.515Z,4.25
2023-06-21T09:07:46.774Z,6.25
2023-06-21T09:10:16.632Z,4.97
2023-06-21T09:12:45.403Z,7.68
2023-06-21T09:15:12.985Z,5.40
2023-06-21T09:17:40.099Z,4.35
2023-06-21T09:20:09.549Z,3.95
2023-06-21T09:22:37.967Z,3.67
2023-06-21T09:25:05.775Z,3.20
2023-06-21T09:27:34.629Z,6.07
2023-06-21T09:30:12.168Z,3.45
2023-06-21T09:32:48.300Z,1.30
2023-06-21T09:35:15.428Z,1.27
2023-06-21T09:37:45.563Z,1.85
2023-06-21T09:40:13.846Z,3.33
2023-06-21T09:42:42.559Z,1.13
2023-06-21T09:45:12.153Z,1.48
2023-06-21T09:47:42.913Z,2.00
2023-06-21T09:50:11.438Z,1.90
2023-06-21T09:52:43.162Z,1.45
2023-06-21T09:55:14.574Z,1.63
2023-06-21T09:57:41.686Z,4.25
2023-06-21T10:00:09.468Z,1.67
2023-06-21T10:02:42.680Z,1.88
2023-06-21T10:05:17.675Z,1.42
2023-06-21T10:07:47.920Z,1.90
2023-06-21T10:10:15.624Z,1.65
2023-06-21T10:12:56.051Z,1.73
2023-06-21T10:15:26.820Z,1.67
2023-06-21T10:20:24.237Z,1.63
2023-06-21T10:22:53.900Z,1.40
2023-06-21T10:25:25.382Z,1.40
2023-06-21T10:27:53.724Z,2.05
2023-06-21T10:30:22.862Z,4.00
2023-06-21T10:32:50.937Z,1.85
2023-06-21T10:35:21.065Z,2.63
2023-06-21T10:37:51.418Z,1.53
2023-06-21T10:40:19.380Z,2.88
2023-06-21T10:42:47.034Z,4.03
2023-06-21T10:45:15.251Z,1.65
2023-06-21T10:47:42.546Z,1.50
2023-06-21T10:50:10.567Z,1.90
2023-06-21T10:52:38.308Z,1.65
2023-06-21T10:55:05.599Z,2.65
2023-06-21T10:57:34.942Z,2.72
2023-06-21T11:00:07.994Z,2.65
2023-06-21T11:02:35.836Z,1.40
2023-06-21T11:05:16.996Z,1.70
2023-06-21T11:08:03.102Z,2.10
2023-06-21T11:10:59.423Z,1.52
2023-06-21T11:13:36.554Z,3.97
2023-06-21T11:16:18.965Z,2.30
2023-06-21T11:19:01.088Z,2.58
2023-06-21T11:21:46.845Z,2.25
2023-06-21T11:24:19.294Z,2.10
2023-06-21T11:26:52.507Z,1.73
2023-06-21T11:29:19.345Z,1.50
2023-06-21T11:31:47.839Z,4.68
2023-06-21T11:34:24.761Z,2.20
2023-06-21T11:37:19.129Z,11.93
2023-06-21T11:39:46.436Z,2.08
2023-06-21T11:42:16.915Z,4.60
2023-06-21T11:44:44.149Z,3.25
2023-06-21T11:47:20.135Z,3.65
2023-06-21T11:49:52.103Z,1.50
2023-06-21T11:52:26.282Z,1.80
2023-06-21T11:54:53.141Z,1.57
2023-06-21T11:57:19.999Z,2.10
2023-06-21T11:59:46.932Z,3.22
2023-06-21T12:02:18.377Z,3.20
2023-06-21T12:04:45.489Z,4.07
2023-06-21T12:07:12.433Z,1.40
2023-06-21T12:09:40.333Z,1.70
2023-06-21T12:12:11.113Z,2.20
2023-06-21T12:14:38.814Z,2.08
2023-06-21T12:17:06.601Z,3.22
2023-06-21T12:19:34.011Z,1.50
2023-06-21T12:22:04.258Z,1.95
2023-06-21T12:24:32.376Z,1.45
2023-06-21T12:27:04.999Z,2.03
2023-06-21T12:29:37.351Z,3.53
2023-06-21T12:32:04.778Z,1.53
2023-06-21T12:34:33.236Z,2.78
2023-06-21T12:37:00.374Z,2.22
2023-06-21T12:39:30.435Z,3.05
2023-06-21T12:42:06.139Z,2.78
2023-06-21T12:44:52.290Z,1.60
2023-06-21T12:47:19.439Z,2.47
2023-06-21T12:49:49.870Z,1.33
2023-06-21T12:52:27.398Z,2.90
2023-06-21T12:55:00.523Z,1.55
2023-06-21T12:57:34.007Z,2.83
2023-06-21T13:00:00.924Z,2.15
2023-06-21T13:02:30.660Z,2.95
2023-06-21T13:05:01.994Z,3.40
2023-06-21T13:07:43.538Z,6.55
2023-06-21T13:10:31.331Z,1.57
2023-06-21T13:12:58.622Z,1.55
2023-06-21T13:15:46.911Z,1.45
2023-06-21T13:19:16.233Z,1.40
2023-06-21T13:26:10.774Z,1.83
2023-06-21T13:28:27.770Z,1.20
2023-06-21T13:31:25.432Z,2.70
2023-06-21T13:33:58.067Z,1.88
2023-06-21T13:36:31.287Z,3.05
2023-06-21T13:40:18.723Z,2.47
2023-06-21T13:42:53.109Z,1.75
2023-06-21T13:45:57.174Z,2.28
2023-06-21T13:51:46.312Z,3.97
2023-06-21T13:54:52.740Z,1.73
2023-06-21T14:23:00.417Z,1.90
2023-06-21T15:15:10.506Z,2.20
2023-06-21T15:17:38.621Z,2.45
2023-06-21T15:20:06.979Z,2.30
2023-06-21T15:22:45.054Z,3.35
2023-06-21T15:25:14.402Z,2.80
2023-06-21T15:27:46.614Z,9.03
2023-06-21T15:30:37.321Z,3.53
2023-06-21T15:33:15.382Z,2.70
2023-06-21T15:35:46.215Z,2.13
2023-06-21T15:38:18.072Z,2.05
2023-06-21T15:41:05.721Z,2.17
2023-06-21T15:46:56.763Z,2.22
2023-06-21T15:50:01.872Z,1.95
2023-06-21T15:52:42.456Z,3.47
2023-06-21T15:55:27.773Z,1.67
2023-06-21T15:58:22.182Z,3.13
2023-06-21T16:01:17.480Z,1.80
2023-06-21T16:03:48.030Z,1.80
2023-06-21T16:06:21.391Z,1.88
2023-06-21T16:11:31.894Z,1.98
2023-06-21T16:14:12.546Z,1.85
2023-06-21T16:16:47.986Z,2.53
2023-06-21T16:22:18.389Z,2.30
2023-06-21T16:25:08.636Z,2.35
2023-06-21T16:27:51.330Z,1.80
2023-06-21T16:30:33.468Z,1.85
2023-06-21T16:33:19.324Z,2.45
2023-06-21T16:36:11.902Z,4.43
2023-06-21T16:38:41.796Z,1.70
2023-06-21T16:41:21.931Z,1.63
2023-06-21T16:43:53.632Z,1.50
2023-06-21T16:46:45.377Z,3.00
2023-06-21T16:49:12.645Z,2.20
2023-06-21T16:51:45.713Z,3.17
2023-06-21T16:54:21.232Z,3.83
2023-06-21T16:57:28.537Z,3.47
2023-06-21T17:00:00.899Z,2.13
2023-06-21T17:02:34.682Z,3.60
2023-06-21T17:05:25.431Z,3.10
2023-06-21T17:07:56.818Z,2.15
2023-06-21T17:10:25.930Z,1.67
2023-06-21T17:12:55.573Z,1.52
2023-06-21T17:15:35.869Z,1.43
2023-06-21T17:18:09.675Z,1.67
2023-06-21T17:20:50.787Z,1.35
2023-06-21T17:23:30.146Z,1.50
2023-06-21T17:26:00.369Z,1.35
2023-06-21T17:32:00.619Z,1.45
2023-06-21T17:34:52.115Z,1.52
2023-06-21T17:47:24.050Z,2.30
2023-06-21T17:51:53.229Z,1.85
2023-06-21T17:59:54.750Z,1.43
2023-06-21T18:02:36.439Z,1.83
2023-06-21T18:05:43.131Z,1.70
2023-06-21T18:15:26.890Z,5.67
2023-06-21T18:22:13.435Z,2.28
2023-06-21T18:50:56.864Z,2.22
2023-06-21T18:53:25.962Z,1.95
2023-06-21T18:55:52.925Z,1.40
2023-06-21T18:58:20.527Z,2.95
2023-06-21T19:00:47.371Z,2.03
2023-06-21T19:03:14.194Z,1.40
2023-06-21T19:05:41.099Z,2.40
2023-06-21T19:08:08.756Z,2.47
2023-06-21T19:10:35.446Z,2.08
2023-06-21T19:13:02.156Z,1.90
2023-06-21T19:15:28.895Z,3.15
2023-06-21T19:17:56.826Z,2.10
2023-06-21T19:20:23.709Z,1.83
2023-06-21T19:22:50.633Z,2.97
2023-06-21T19:25:17.750Z,2.23
2023-06-21T19:27:45.672Z,3.40
2023-06-21T19:30:13.720Z,1.88
2023-06-21T19:32:42.714Z,3.50
2023-06-21T19:35:12.265Z,3.22
2023-06-21T19:37:39.253Z,2.43
2023-06-21T19:40:06.655Z,2.50
2023-06-21T19:42:33.627Z,3.22
2023-06-21T19:45:00.395Z,2.28
2023-06-21T19:47:31.937Z,2.10
2023-06-21T19:49:58.686Z,5.93
2023-06-21T19:52:25.653Z,6.20
2023-06-21T19:54:52.285Z,2.40
2023-06-21T19:57:20.240Z,1.92
2023-06-21T19:59:46.930Z,3.90
2023-06-21T20:02:13.574Z,1.87
2023-06-21T20:04:40.335Z,3.10
2023-06-21T20:07:07.124Z,3.22
2023-06-21T20:09:33.728Z,2.60
2023-06-21T20:12:00.339Z,1.83
2023-06-21T20:14:26.889Z,2.87
2023-06-21T20:16:53.619Z,2.40
2023-06-21T20:19:20.458Z,3.92
2023-06-21T20:21:47.168Z,3.30
2023-06-21T20:24:17.381Z,2.55
2023-06-21T20:26:44.138Z,3.57
2023-06-21T20:29:10.947Z,5.05
2023-06-21T20:31:37.730Z,4.03
2023-06-21T20:34:04.581Z,2.30
2023-06-21T20:36:34.305Z,3.35
2023-06-21T20:39:06.426Z,2.93
2023-06-21T20:41:33.573Z,2.47
2023-06-21T20:44:01.329Z,4.32
2023-06-21T20:46:29.463Z,2.47
2023-06-21T20:48:59.552Z,3.10
2023-06-21T20:51:26.658Z,2.60
2023-06-21T20:53:53.517Z,3.40
2023-06-21T20:56:20.494Z,2.47
2023-06-21T20:58:47.770Z,4.43
2023-06-21T21:01:15.267Z,6.35
2023-06-21T21:03:43.284Z,3.10
2023-06-21T21:06:10.691Z,3.65
2023-06-21T21:08:39.046Z,6.40
2023-06-21T21:11:07.282Z,4.97
2023-06-21T21:13:34.861Z,4.88
2023-06-21T21:16:01.611Z,4.63
2023-06-21T21:18:28.469Z,3.55
2023-06-21T21:20:55.421Z,3.17
2023-06-21T21:23:22.235Z,3.65
2023-06-21T21:25:49.489Z,5.05
2023-06-21T21:28:16.374Z,5.27
2023-06-21T21:30:43.200Z,5.45
2023-06-21T21:33:10.121Z,5.60
2023-06-21T21:35:37.110Z,3.10
2023-06-21T21:38:07.233Z,4.65
2023-06-21T21:40:34.163Z,4.87
2023-06-21T21:43:01.131Z,4.20
2023-06-21T21:45:27.894Z,3.65
2023-06-21T21:47:54.792Z,4.32
2023-06-21T21:50:22.052Z,4.20
2023-06-21T21:52:48.736Z,4.43
2023-06-21T21:55:18.375Z,6.53
2023-06-21T21:57:45.221Z,3.78
2023-06-21T22:00:12.739Z,6.68
2023-06-21T22:02:39.946Z,3.70
2023-06-21T22:05:07.946Z,3.87
2023-06-21T22:07:35.036Z,5.07
2023-06-21T22:10:03.049Z,3.95
2023-06-21T22:12:30.107Z,4.38
2023-06-21T22:14:56.858Z,3.60
2023-06-21T22:17:23.943Z,4.30
2023-06-21T22:19:50.533Z,3.78
2023-06-21T22:22:24.822Z,4.40
2023-06-21T22:24:51.442Z,5.32
2023-06-21T22:27:18.486Z,4.10
2023-06-21T22:29:45.238Z,3.87
2023-06-21T22:32:12.064Z,3.67
2023-06-21T22:34:39.010Z,5.60
2023-06-21T22:37:06.174Z,3.75
2023-06-21T22:39:33.585Z,4.95
2023-06-21T22:42:00.562Z,4.53
2023-06-21T22:44:27.298Z,3.60
2023-06-21T22:46:54.322Z,4.28
2023-06-21T22:49:24.070Z,3.92
2023-06-21T22:51:50.736Z,4.50
2023-06-21T22:54:17.518Z,4.50
2023-06-21T22:56:44.122Z,3.92
2023-06-21T22:59:10.751Z,4.72
2023-06-21T23:01:37.474Z,4.53
2023-06-21T23:04:04.451Z,4.50
2023-06-21T23:06:31.049Z,4.80
2023-06-21T23:08:58.049Z,5.20
2023-06-21T23:11:27.579Z,6.18
2023-06-21T23:13:58.923Z,5.68
2023-06-21T23:16:26.819Z,5.22
2023-06-21T23:18:57.420Z,4.90
2023-06-21T23:21:27.081Z,5.28
2023-06-21T23:23:54.545Z,6.03
2023-06-21T23:26:27.273Z,5.03
2023-06-21T23:28:56.306Z,6.22
2023-06-21T23:31:23.828Z,6.53
2023-06-21T23:33:50.578Z,6.63
2023-06-21T23:36:17.338Z,4.63
2023-06-21T23:38:55.824Z,6.20
2023-06-21T23:41:24.015Z,5.55
2023-06-21T23:44:00.301Z,5.60
2023-06-21T23:46:30.829Z,5.45
2023-06-21T23:48:59.252Z,4.57
2023-06-21T23:51:31.713Z,5.00
2023-06-21T23:53:58.586Z,6.90
2023-06-21T23:56:27.949Z,5.37
2023-06-21T23:58:55.343Z,5.70
